createdAt,value
2018-07-15T00:01:43.614Z,68.93
2018-07-15T00:04:11.828Z,69.66
2018-07-15T00:06:40.141Z,70.05
2018-07-15T00:09:08.452Z,70.54
2018-07-15T00:11:36.679Z,71.05
2018-07-15T00:14:04.915Z,70.20
2018-07-15T00:16:33.093Z,71.28
2018-07-15T00:19:01.388Z,71.67
2018-07-15T00:21:29.559Z,71.88
2018-07-15T00:23:57.832Z,72.86
2018-07-15T00:26:26.018Z,72.53
2018-07-15T00:28:54.192Z,73.07
2018-07-15T00:31:22.417Z,72.93
2018-07-15T00:33:50.769Z,72.31
2018-07-15T00:36:18.961Z,72.10
2018-07-15T00:38:47.224Z,72.03
2018-07-15T00:41:15.496Z,73.24
2018-07-15T00:43:43.754Z,71.49
2018-07-15T00:46:11.994Z,72.62
2018-07-15T00:48:40.637Z,73.42
2018-07-15T00:51:08.859Z,73.23
2018-07-15T00:53:37.074Z,73.71
2018-07-15T00:56:05.345Z,74.55
2018-07-15T00:58:33.523Z,74.40
2018-07-15T01:01:04.048Z,73.24
2018-07-15T01:03:34.076Z,74.72
2018-07-15T01:06:02.593Z,74.08
2018-07-15T01:08:31.962Z,73.95
2018-07-15T01:11:00.206Z,73.79
2018-07-15T01:13:28.446Z,73.36
2018-07-15T01:15:56.715Z,73.67
2018-07-15T01:18:24.968Z,73.36
2018-07-15T01:20:53.319Z,73.14
2018-07-15T01:23:21.568Z,73.16
2018-07-15T01:25:49.891Z,73.40
2018-07-15T01:28:18.109Z,74.36
2018-07-15T01:30:46.396Z,73.03
2018-07-15T01:33:14.615Z,73.41
2018-07-15T01:35:42.923Z,74.28
2018-07-15T01:38:11.160Z,72.84
2018-07-15T01:40:39.433Z,73.30
2018-07-15T01:43:07.651Z,74.39
2018-07-15T01:45:36.018Z,72.57
2018-07-15T01:48:04.244Z,73.10
2018-07-15T01:50:32.513Z,73.83
2018-07-15T01:53:00.751Z,74.11
2018-07-15T01:55:28.989Z,74.81
2018-07-15T01:57:57.307Z,73.40
2018-07-15T02:00:26.213Z,73.81
2018-07-15T02:02:54.506Z,73.56
2018-07-15T02:05:22.765Z,73.00
2018-07-15T02:07:51.004Z,73.33
2018-07-15T02:10:19.297Z,73.49
2018-07-15T02:12:47.555Z,72.08
2018-07-15T02:15:15.822Z,72.37
2018-07-15T02:17:44.051Z,73.63
2018-07-15T02:20:12.360Z,73.39
2018-07-15T02:22:40.590Z,73.35
2018-07-15T02:25:08.831Z,73.31
2018-07-15T02:27:37.059Z,73.86
2018-07-15T02:30:05.453Z,74.39
2018-07-15T02:32:33.665Z,74.15
2018-07-15T02:35:01.892Z,74.91
2018-07-15T02:37:30.278Z,75.03
2018-07-15T02:39:58.560Z,73.81
2018-07-15T02:42:26.979Z,73.62
2018-07-15T02:44:55.207Z,74.26
2018-07-15T02:47:23.428Z,74.36
2018-07-15T02:49:51.729Z,74.04
2018-07-15T02:52:20.022Z,74.09
2018-07-15T02:54:48.229Z,74.86
2018-07-15T02:57:16.487Z,74.45
2018-07-15T02:59:44.910Z,74.98
2018-07-15T03:02:13.177Z,74.00
2018-07-15T03:04:41.481Z,73.85
2018-07-15T03:07:09.774Z,74.97
2018-07-15T03:09:38.093Z,74.56
2018-07-15T03:12:06.343Z,73.60
2018-07-15T03:14:34.633Z,73.73
2018-07-15T03:17:02.868Z,72.81
2018-07-15T03:19:31.081Z,72.81
2018-07-15T03:21:59.397Z,73.36
2018-07-15T03:24:27.623Z,73.29
2018-07-15T03:26:55.965Z,75.60
2018-07-15T03:29:24.455Z,74.11
2018-07-15T03:31:52.749Z,74.22
2018-07-15T03:34:20.968Z,74.66
2018-07-15T03:36:49.268Z,73.79
2018-07-15T03:39:19.086Z,74.10
2018-07-15T03:41:47.375Z,74.62
2018-07-15T03:44:15.565Z,75.55
2018-07-15T03:46:43.843Z,74.11
2018-07-15T03:49:12.041Z,73.91
2018-07-15T03:51:40.358Z,69.34
2018-07-15T03:54:08.591Z,67.32
2018-07-15T03:56:36.863Z,69.67
2018-07-15T03:59:05.117Z,63.56
2018-07-15T04:01:33.360Z,62.77
2018-07-15T04:04:01.573Z,59.04
2018-07-15T04:06:29.844Z,55.96
2018-07-15T04:08:58.140Z,54.34
2018-07-15T04:11:26.327Z,51.28
2018-07-15T04:13:54.569Z,49.60
2018-07-15T04:16:22.776Z,49.25
2018-07-15T04:18:51.053Z,49.94
2018-07-15T04:21:19.341Z,48.71
2018-07-15T04:23:47.572Z,47.62
2018-07-15T04:26:15.829Z,50.70
2018-07-15T04:28:44.048Z,58.28
2018-07-15T04:31:12.275Z,56.38
2018-07-15T04:33:40.554Z,64.41
2018-07-15T04:36:08.992Z,67.67
2018-07-15T04:38:37.259Z,70.28
2018-07-15T04:41:05.623Z,72.20
2018-07-15T04:43:33.881Z,72.61
2018-07-15T04:46:02.106Z,72.80
2018-07-15T04:48:30.372Z,74.51
2018-07-15T04:50:58.646Z,75.38
2018-07-15T04:53:26.910Z,75.60
2018-07-15T04:55:55.296Z,75.44
2018-07-15T04:58:23.588Z,75.87
2018-07-15T05:00:51.954Z,76.19
2018-07-15T05:03:20.231Z,76.45
2018-07-15T05:05:48.459Z,77.89
2018-07-15T05:08:16.729Z,78.75
2018-07-15T05:10:44.970Z,79.67
2018-07-15T05:13:13.250Z,78.43
2018-07-15T05:15:41.511Z,78.07
2018-07-15T05:18:09.813Z,78.67
2018-07-15T05:20:38.164Z,78.44
2018-07-15T05:23:06.446Z,78.19
2018-07-15T05:25:34.654Z,77.11
2018-07-15T05:28:02.919Z,78.27
2018-07-15T05:30:31.129Z,77.50
2018-07-15T05:32:59.323Z,79.32
2018-07-15T05:35:27.814Z,78.10
2018-07-15T05:37:56.069Z,78.82
2018-07-15T05:40:24.294Z,78.39
2018-07-15T05:42:52.564Z,78.11
2018-07-15T05:45:20.792Z,77.61
2018-07-15T05:47:49.070Z,78.34
2018-07-15T05:50:17.276Z,77.70
2018-07-15T05:52:45.511Z,78.21
2018-07-15T05:55:13.727Z,77.86
2018-07-15T05:57:42.003Z,78.18
2018-07-15T06:00:10.229Z,78.18
2018-07-15T06:02:38.468Z,78.37
2018-07-15T06:05:06.758Z,78.27
2018-07-15T06:07:35.076Z,78.19
2018-07-15T06:10:03.581Z,78.05
2018-07-15T06:12:31.800Z,78.57
2018-07-15T06:15:00.039Z,79.13
2018-07-15T06:17:28.301Z,77.92
2018-07-15T06:19:56.643Z,77.32
2018-07-15T06:22:24.878Z,79.37
2018-07-15T06:24:53.141Z,77.60
2018-07-15T06:27:21.364Z,77.83
2018-07-15T06:29:49.649Z,77.66
2018-07-15T06:32:17.902Z,77.26
2018-07-15T06:34:46.328Z,77.56
2018-07-15T06:37:14.615Z,77.88
2018-07-15T06:39:42.901Z,77.32
2018-07-15T06:42:11.264Z,75.99
2018-07-15T06:44:39.578Z,76.42
2018-07-15T06:47:07.875Z,76.34
2018-07-15T06:49:36.091Z,77.44
2018-07-15T06:52:04.416Z,77.34
2018-07-15T06:54:32.710Z,76.76
2018-07-15T06:57:01.051Z,76.11
2018-07-15T06:59:29.409Z,76.62
2018-07-15T07:01:57.726Z,75.38
2018-07-15T07:04:26.013Z,75.40
2018-07-15T07:06:54.289Z,75.30
2018-07-15T07:09:22.717Z,74.09
2018-07-15T07:11:50.987Z,75.81
2018-07-15T07:14:19.718Z,74.61
2018-07-15T07:16:47.912Z,74.29
2018-07-15T07:19:16.247Z,75.03
2018-07-15T07:21:44.475Z,74.03
2018-07-15T07:24:12.812Z,74.02
2018-07-15T07:26:41.165Z,74.99
2018-07-15T07:29:09.438Z,72.97
2018-07-15T07:31:37.655Z,72.85
2018-07-15T07:34:05.981Z,72.50
2018-07-15T07:36:34.248Z,72.60
2018-07-15T07:39:02.676Z,71.62
2018-07-15T07:41:31.001Z,71.79
2018-07-15T07:43:59.377Z,71.50
2018-07-15T07:46:27.680Z,70.38
2018-07-15T07:48:56.916Z,70.52
2018-07-15T07:51:25.402Z,70.46
2018-07-15T07:53:53.740Z,68.82
2018-07-15T07:56:22.036Z,69.01
2018-07-15T07:58:51.178Z,69.05
2018-07-15T08:01:19.526Z,69.13
2018-07-15T08:03:47.873Z,69.22
2018-07-15T08:06:16.383Z,68.24
2018-07-15T08:08:44.929Z,69.26
2018-07-15T08:11:13.194Z,69.95
2018-07-15T08:13:41.507Z,69.96
2018-07-15T08:16:09.867Z,68.62
2018-07-15T08:18:38.194Z,68.62
2018-07-15T08:21:06.510Z,68.31
2018-07-15T08:23:34.829Z,68.23
2018-07-15T08:26:03.100Z,67.96
2018-07-15T08:28:31.676Z,69.11
2018-07-15T08:31:16.584Z,68.41
2018-07-15T08:33:44.903Z,68.00
2018-07-15T08:36:13.359Z,68.20
2018-07-15T08:38:42.625Z,68.55
2018-07-15T08:41:10.997Z,68.17
2018-07-15T08:43:39.296Z,68.99
2018-07-15T08:46:08.012Z,68.11
2018-07-15T08:48:36.331Z,67.66
2018-07-15T08:51:04.790Z,68.44
2018-07-15T08:53:33.146Z,67.44
2018-07-15T08:56:01.429Z,66.71
2018-07-15T08:58:29.985Z,67.11
2018-07-15T09:00:58.301Z,66.56
2018-07-15T09:03:26.698Z,67.29
2018-07-15T09:05:55.070Z,67.24
2018-07-15T09:08:23.531Z,67.04
2018-07-15T09:10:51.766Z,67.96
2018-07-15T09:13:20.002Z,66.75
2018-07-15T09:15:48.743Z,66.98
2018-07-15T09:18:17.112Z,66.88
2018-07-15T09:20:45.661Z,64.67
2018-07-15T09:23:15.791Z,65.52
2018-07-15T09:25:44.172Z,64.61
2018-07-15T09:28:12.441Z,65.00
2018-07-15T09:30:40.870Z,65.63
2018-07-15T09:33:09.214Z,65.21
2018-07-15T09:35:37.760Z,65.72
2018-07-15T09:38:06.152Z,65.62
2018-07-15T09:40:34.449Z,64.10
2018-07-15T09:43:02.751Z,63.39
2018-07-15T09:45:31.030Z,65.63
2018-07-15T09:47:59.277Z,65.05
2018-07-15T09:50:27.589Z,64.88
2018-07-15T09:52:55.891Z,63.61
2018-07-15T09:55:24.189Z,63.13
2018-07-15T09:57:52.733Z,64.55
2018-07-15T10:00:26.563Z,63.12
2018-07-15T10:02:54.811Z,62.83
2018-07-15T10:05:23.154Z,63.54
2018-07-15T10:07:51.381Z,63.62
2018-07-15T10:10:19.902Z,63.41
2018-07-15T10:12:48.164Z,63.15
2018-07-15T10:15:16.467Z,64.28
2018-07-15T10:17:44.697Z,65.28
2018-07-15T10:20:13.052Z,64.81
2018-07-15T10:22:41.302Z,64.25
2018-07-15T10:25:09.671Z,63.87
2018-07-15T10:27:38.123Z,63.95
2018-07-15T10:30:06.704Z,63.45
2018-07-15T10:32:35.075Z,63.26
2018-07-15T10:35:03.400Z,63.51
2018-07-15T10:37:31.888Z,64.56
2018-07-15T10:40:00.224Z,63.18
2018-07-15T10:42:28.491Z,61.29
2018-07-15T10:44:56.796Z,62.29
2018-07-15T10:47:25.183Z,63.56
2018-07-15T10:49:53.905Z,63.24
2018-07-15T10:52:22.225Z,60.34
2018-07-15T10:54:50.506Z,61.35
2018-07-15T10:57:19.072Z,59.82
2018-07-15T10:59:47.462Z,60.98
2018-07-15T11:02:15.774Z,60.82
2018-07-15T11:04:44.035Z,60.67
2018-07-15T11:07:12.321Z,62.17
2018-07-15T11:09:40.704Z,60.85
2018-07-15T11:12:09.024Z,61.63
2018-07-15T11:14:37.577Z,60.47
2018-07-15T11:17:05.928Z,60.10
2018-07-15T11:19:34.664Z,59.94
2018-07-15T11:22:03.104Z,58.34
2018-07-15T11:24:31.376Z,59.65
2018-07-15T11:27:00.058Z,57.73
2018-07-15T11:29:28.401Z,59.58
2018-07-15T11:31:56.727Z,58.77
2018-07-15T11:34:25.027Z,59.22
2018-07-15T11:36:53.420Z,57.08
2018-07-15T11:39:21.646Z,56.21
2018-07-15T11:41:50.025Z,56.68
2018-07-15T11:44:18.281Z,56.38
2018-07-15T11:46:47.340Z,56.31
2018-07-15T11:49:15.623Z,57.07
2018-07-15T11:51:43.950Z,56.58
2018-07-15T11:54:12.276Z,55.93
2018-07-15T11:56:40.593Z,56.48
2018-07-15T11:59:08.807Z,56.99
2018-07-15T12:01:37.949Z,55.75
2018-07-15T12:04:06.335Z,54.36
2018-07-15T12:06:34.699Z,54.53
2018-07-15T12:09:03.221Z,55.11
2018-07-15T12:11:31.542Z,55.46
2018-07-15T12:13:59.768Z,54.27
2018-07-15T12:16:28.066Z,55.15
2018-07-15T12:18:56.568Z,54.94
2018-07-15T12:21:24.960Z,55.59
2018-07-15T12:23:53.210Z,54.88
2018-07-15T12:26:21.617Z,53.70
2018-07-15T12:28:49.962Z,53.50
2018-07-15T12:31:18.270Z,52.10
2018-07-15T12:33:46.624Z,51.63
2018-07-15T12:36:15.100Z,52.41
2018-07-15T12:38:44.675Z,52.10
2018-07-15T12:41:13.047Z,54.94
2018-07-15T12:43:41.377Z,55.07
2018-07-15T12:46:09.669Z,54.66
2018-07-15T12:48:38.002Z,54.51
2018-07-15T12:51:06.426Z,55.11
2018-07-15T12:53:35.071Z,54.55
2018-07-15T12:56:03.478Z,55.58
2018-07-15T12:58:31.775Z,54.19
2018-07-15T13:01:00.149Z,54.95
2018-07-15T13:03:28.575Z,54.04
2018-07-15T13:05:56.816Z,54.07
2018-07-15T13:08:25.195Z,53.75
2018-07-15T13:10:53.539Z,52.12
2018-07-15T13:13:21.858Z,52.97
2018-07-15T13:15:50.245Z,50.10
2018-07-15T13:18:18.552Z,50.00
2018-07-15T13:20:46.855Z,51.08
2018-07-15T13:23:15.139Z,49.29
2018-07-15T13:25:43.401Z,48.43
2018-07-15T13:28:11.725Z,50.16
2018-07-15T13:30:40.139Z,51.47
2018-07-15T13:33:08.436Z,52.76
2018-07-15T13:35:36.735Z,52.95
2018-07-15T13:38:05.080Z,52.79
2018-07-15T13:40:33.368Z,51.04
2018-07-15T13:43:02.207Z,50.06
2018-07-15T13:45:30.494Z,50.69
2018-07-15T13:47:58.922Z,49.20
2018-07-15T13:50:27.170Z,50.49
2018-07-15T13:52:55.718Z,50.68
2018-07-15T13:55:24.027Z,51.04
2018-07-15T13:57:52.435Z,51.32
2018-07-15T14:00:20.740Z,51.21
2018-07-15T14:02:49.115Z,51.27
2018-07-15T14:05:17.579Z,52.07
2018-07-15T14:07:45.938Z,51.74
2018-07-15T14:10:14.476Z,50.36
2018-07-15T14:12:42.880Z,48.90
2018-07-15T14:15:11.356Z,49.91
2018-07-15T14:17:39.602Z,50.39
2018-07-15T14:20:08.067Z,49.82
2018-07-15T14:22:36.410Z,50.44
2018-07-15T14:25:04.867Z,48.88
2018-07-15T14:27:33.358Z,47.83
2018-07-15T14:30:01.680Z,47.74
2018-07-15T14:32:30.392Z,45.17
2018-07-15T14:34:58.891Z,47.36
2018-07-15T14:37:27.205Z,45.69
2018-07-15T14:39:55.561Z,47.29
2018-07-15T14:42:23.859Z,47.31
2018-07-15T14:44:52.191Z,49.28
2018-07-15T14:47:20.572Z,48.17
2018-07-15T14:49:48.999Z,48.23
2018-07-15T14:52:17.335Z,46.68
2018-07-15T14:54:45.740Z,46.38
2018-07-15T14:57:14.094Z,44.29
2018-07-15T14:59:42.500Z,45.26
2018-07-15T15:02:10.774Z,46.24
2018-07-15T15:04:39.073Z,44.49
2018-07-15T15:07:07.312Z,44.56
2018-07-15T15:09:35.594Z,44.79
2018-07-15T15:12:03.905Z,44.02
2018-07-15T15:14:32.228Z,43.40
2018-07-15T15:17:00.513Z,44.99
2018-07-15T15:19:28.845Z,45.02
2018-07-15T15:21:57.171Z,43.45
2018-07-15T15:24:25.538Z,44.55
2018-07-15T15:26:53.836Z,44.79
2018-07-15T15:29:22.197Z,45.11
2018-07-15T15:31:50.497Z,46.48
2018-07-15T15:34:18.876Z,47.30
2018-07-15T15:36:47.104Z,45.39
2018-07-15T15:39:15.387Z,45.64
2018-07-15T15:41:43.816Z,45.94
2018-07-15T15:44:12.068Z,46.13
2018-07-15T15:46:40.348Z,44.75
2018-07-15T15:49:08.644Z,46.30
2018-07-15T15:51:36.933Z,46.56
2018-07-15T15:54:05.290Z,43.99
2018-07-15T15:56:33.661Z,45.07
2018-07-15T15:59:01.875Z,44.75
2018-07-15T16:01:30.209Z,44.32
2018-07-15T16:03:58.543Z,46.44
2018-07-15T16:06:26.946Z,44.73
2018-07-15T16:08:55.316Z,43.77
2018-07-15T16:11:23.680Z,46.80
2018-07-15T16:13:51.942Z,45.33
2018-07-15T16:16:20.246Z,46.47
2018-07-15T16:18:48.517Z,46.73
2018-07-15T16:21:16.786Z,46.45
2018-07-15T16:23:46.013Z,45.42
2018-07-15T16:26:14.590Z,45.42
2018-07-15T16:28:42.838Z,43.72
2018-07-15T16:31:11.092Z,45.54
2018-07-15T16:33:39.439Z,44.58
2018-07-15T16:36:07.893Z,44.49
2018-07-15T16:38:36.343Z,42.65
2018-07-15T16:41:04.897Z,44.52
2018-07-15T16:43:33.302Z,43.71
2018-07-15T16:46:01.603Z,45.42
2018-07-15T16:48:29.906Z,44.34
2018-07-15T16:50:58.229Z,43.85
2018-07-15T16:53:26.523Z,44.88
2018-07-15T16:55:54.985Z,45.50
2018-07-15T16:58:23.193Z,46.05
2018-07-15T17:00:51.580Z,45.64
2018-07-15T17:03:19.910Z,45.05
2018-07-15T17:05:48.263Z,45.00
2018-07-15T17:08:16.565Z,44.41
2018-07-15T17:10:44.806Z,44.88
2018-07-15T17:13:13.238Z,43.53
2018-07-15T17:15:41.730Z,44.64
2018-07-15T17:18:10.061Z,45.54
2018-07-15T17:20:38.389Z,44.68
2018-07-15T17:23:06.702Z,43.87
2018-07-15T17:25:34.926Z,44.50
2018-07-15T17:28:03.517Z,44.73
2018-07-15T17:30:31.804Z,44.66
2018-07-15T17:33:01.553Z,44.92
2018-07-15T17:35:31.116Z,45.05
2018-07-15T17:38:00.889Z,45.15
2018-07-15T17:40:30.695Z,44.73
2018-07-15T17:43:01.153Z,44.65
2018-07-15T17:45:30.772Z,43.96
2018-07-15T17:48:00.099Z,43.86
2018-07-15T17:50:29.841Z,44.66
2018-07-15T17:52:58.233Z,44.35
2018-07-15T17:55:26.517Z,45.19
2018-07-15T17:57:55.675Z,44.96
2018-07-15T18:00:24.154Z,45.24
2018-07-15T18:02:52.484Z,45.05
2018-07-15T18:05:20.819Z,44.91
2018-07-15T18:07:49.264Z,45.10
2018-07-15T18:10:17.903Z,45.84
2018-07-15T18:12:46.271Z,45.60
2018-07-15T18:15:14.597Z,44.66
2018-07-15T18:17:42.909Z,46.37
2018-07-15T18:20:11.255Z,45.54
2018-07-15T18:22:39.830Z,46.05
2018-07-15T18:25:08.230Z,46.32
2018-07-15T18:27:36.534Z,46.60
2018-07-15T18:30:05.061Z,45.10
2018-07-15T18:32:33.452Z,47.01
2018-07-15T18:35:01.849Z,46.33
2018-07-15T18:37:30.190Z,47.16
2018-07-15T18:39:58.653Z,46.51
2018-07-15T18:42:27.879Z,47.42
2018-07-15T18:44:57.526Z,48.34
2018-07-15T18:47:26.476Z,49.01
2018-07-15T18:49:54.778Z,49.25
2018-07-15T18:52:23.855Z,49.28
2018-07-15T18:54:52.127Z,49.35
2018-07-15T18:57:20.724Z,49.38
2018-07-15T18:59:49.829Z,50.67
2018-07-15T19:02:18.301Z,51.18
2018-07-15T19:04:46.672Z,50.83
2018-07-15T19:07:14.969Z,51.04
2018-07-15T19:09:43.299Z,51.26
2018-07-15T19:12:11.791Z,50.96
2018-07-15T19:14:40.425Z,51.90
2018-07-15T19:17:08.783Z,51.00
2018-07-15T19:19:37.275Z,52.67
2018-07-15T19:22:05.725Z,52.77
2018-07-15T19:24:34.799Z,53.22
2018-07-15T19:27:03.127Z,53.49
2018-07-15T19:29:31.676Z,53.24
2018-07-15T19:32:00.949Z,52.94
2018-07-15T19:34:30.156Z,53.77
2018-07-15T19:36:58.463Z,52.55
2018-07-15T19:39:26.833Z,54.05
2018-07-15T19:41:55.187Z,54.36
2018-07-15T19:44:23.515Z,53.96
2018-07-15T19:46:51.820Z,54.14
2018-07-15T19:49:20.138Z,54.97
2018-07-15T19:51:48.516Z,54.65
2018-07-15T19:54:16.906Z,54.85
2018-07-15T19:56:45.249Z,55.81
2018-07-15T19:59:13.631Z,54.94
2018-07-15T20:01:41.870Z,54.99
2018-07-15T20:04:10.375Z,55.76
2018-07-15T20:06:38.677Z,55.94
2018-07-15T20:09:06.926Z,55.18
2018-07-15T20:11:35.221Z,56.77
2018-07-15T20:14:03.545Z,56.97
2018-07-15T20:16:32.557Z,56.42
2018-07-15T20:19:00.873Z,56.78
2018-07-15T20:21:29.203Z,55.73
2018-07-15T20:23:57.537Z,57.34
2018-07-15T20:26:25.808Z,57.19
2018-07-15T20:28:54.272Z,56.82
2018-07-15T20:31:22.553Z,58.35
2018-07-15T20:33:50.882Z,57.95
2018-07-15T20:36:19.205Z,57.58
2018-07-15T20:38:47.501Z,56.66
2018-07-15T20:41:15.767Z,57.57
2018-07-15T20:43:44.079Z,57.20
2018-07-15T20:46:12.358Z,56.12
2018-07-15T20:48:40.698Z,56.72
2018-07-15T20:51:09.643Z,57.97
2018-07-15T20:53:38.016Z,58.68
2018-07-15T20:56:06.336Z,58.26
2018-07-15T20:58:35.603Z,60.36
2018-07-15T21:01:03.886Z,60.64
2018-07-15T21:03:32.155Z,62.13
2018-07-15T21:06:00.512Z,61.79
2018-07-15T21:08:28.792Z,62.57
2018-07-15T21:10:57.085Z,62.66
2018-07-15T21:13:25.492Z,61.80
2018-07-15T21:15:53.930Z,62.99
2018-07-15T21:18:22.607Z,61.91
2018-07-15T21:20:50.996Z,63.72
2018-07-15T21:23:19.341Z,61.17
2018-07-15T21:25:47.704Z,61.69
2018-07-15T21:28:15.969Z,59.86
2018-07-15T21:30:44.380Z,60.36
2018-07-15T21:33:12.696Z,61.15
2018-07-15T21:35:40.974Z,61.61
2018-07-15T21:38:09.333Z,62.15
2018-07-15T21:40:38.057Z,62.57
2018-07-15T21:43:06.446Z,62.72
2018-07-15T21:45:34.867Z,64.10
2018-07-15T21:48:03.237Z,62.91
2018-07-15T21:50:31.638Z,63.07
2018-07-15T21:52:59.933Z,64.19
2018-07-15T21:55:28.196Z,64.46
2018-07-15T21:57:56.473Z,64.18
2018-07-15T22:00:24.770Z,65.34
2018-07-15T22:02:53.200Z,65.18
2018-07-15T22:05:21.490Z,66.22
2018-07-15T22:08:01.078Z,66.55
2018-07-15T22:10:42.027Z,66.52
2018-07-15T22:13:10.283Z,66.88
2018-07-15T22:15:38.695Z,66.46
2018-07-15T22:18:07.045Z,67.58
2018-07-15T22:20:35.590Z,66.11
2018-07-15T22:23:03.911Z,65.88
2018-07-15T22:25:32.290Z,67.25
2018-07-15T22:28:01.740Z,66.51
2018-07-15T22:30:30.712Z,65.85
2018-07-15T22:32:59.019Z,66.93
2018-07-15T22:35:27.417Z,67.37
2018-07-15T22:37:55.697Z,67.28
2018-07-15T22:40:24.012Z,67.54
2018-07-15T22:42:52.283Z,67.11
2018-07-15T22:45:20.632Z,66.50
2018-07-15T22:47:48.907Z,67.70
2018-07-15T22:50:17.243Z,67.69
2018-07-15T22:52:45.488Z,67.79
2018-07-15T22:55:13.783Z,68.67
2018-07-15T22:57:42.241Z,69.49
2018-07-15T23:00:10.548Z,68.34
2018-07-15T23:02:38.805Z,67.56
2018-07-15T23:05:45.698Z,67.35
2018-07-15T23:08:13.987Z,69.42
2018-07-15T23:10:42.314Z,68.61
2018-07-15T23:13:11.337Z,69.02
2018-07-15T23:15:40.142Z,68.45
2018-07-15T23:18:08.471Z,68.71
2018-07-15T23:20:37.623Z,69.39
2018-07-15T23:23:06.767Z,69.39
2018-07-15T23:25:35.287Z,69.36
2018-07-15T23:28:04.365Z,69.15
2018-07-15T23:30:34.313Z,69.20
2018-07-15T23:33:03.200Z,69.91
2018-07-15T23:35:32.048Z,69.88
2018-07-15T23:38:00.398Z,69.94
2018-07-15T23:40:28.679Z,68.80
2018-07-15T23:42:57.853Z,70.33
2018-07-15T23:45:26.897Z,69.85
2018-07-15T23:47:56.369Z,68.75
2018-07-15T23:50:24.662Z,69.46
2018-07-15T23:52:53.013Z,70.59
2018-07-15T23:55:21.398Z,69.01
2018-07-15T23:57:49.733Z,68.77
